Time;durP1;ratioP1;P1;durP2;ratioP2;P2;SDS_P1;SDS_P2;PMS_P1;PMS_P2;Temp;Humidity;BMP_temperature;BMP_pressure;BME280_temperature;BME280_humidity;BME280_pressure;Samples;Min_cycle;Max_cycle;Signal;HPM_P1;HPM_P2
2023/08/11 00:00:47;;;;;;;8.90;5.95;;;;;;;19.90;79.20;100543.52;1690295;80;21222;-56
2023/08/11 00:03:54;;;;;;;7.33;5.87;;;;;;;19.85;79.23;100559.47;1704154;80;21380;-57
2023/08/11 00:07:01;;;;;;;7.80;5.78;;;;;;;19.82;79.38;100548.82;1696763;80;21214;-56
2023/08/11 00:10:07;;;;;;;9.33;5.92;;;;;;;19.83;79.51;100552.45;1679846;80;21985;-57
2023/08/11 00:15:43;;;;;;;7.62;5.58;;;;;;;19.85;79.83;100548.92;1647398;84;21387;-57
2023/08/11 00:18:50;;;;;;;7.40;6.08;;;;;;;19.88;79.95;100558.17;1652731;82;21429;-57
2023/08/11 00:21:56;;;;;;;10.68;5.58;;;;;;;19.91;80.12;100559.95;1701360;82;21877;-56
2023/08/11 00:27:32;;;;;;;7.72;5.87;;;;;;;20.01;80.37;100556.63;1643225;82;21403;-57
2023/08/11 00:33:07;;;;;;;8.50;5.62;;;;;;;20.09;80.57;100584.12;1695377;80;21404;-56
2023/08/11 00:41:16;;;;;;;6.40;4.90;;;;;;;20.16;80.74;100596.02;1695497;79;21395;-56
2023/08/11 00:46:51;;;;;;;6.35;4.87;;;;;;;20.19;80.76;100617.80;1708259;80;21222;-57
2023/08/11 00:52:27;;;;;;;6.90;5.42;;;;;;;20.19;80.81;100623.35;1687848;81;21801;-57
2023/08/11 01:00:32;;;;;;;8.30;5.78;;;;;;;20.19;80.96;100612.23;1687388;82;21379;-57
2023/08/11 01:06:44;;;;;;;8.83;5.65;;;;;;;20.18;81.06;100584.13;1688698;81;21391;-57
2023/08/11 01:10:16;;;;;;;6.85;5.42;;;;;;;20.19;81.12;100574.70;1685142;81;21439;-55
2023/08/11 01:13:25;;;;;;;10.72;5.60;;;;;;;20.19;81.19;100574.70;1684500;82;21305;-58
2023/08/11 01:16:32;;;;;;;6.60;5.10;;;;;;;20.13;81.10;100557.00;1693016;80;21291;-57
2023/08/11 01:19:43;;;;;;;7.50;5.53;;;;;;;20.13;81.21;100550.58;1689674;80;21239;-58
2023/08/11 01:28:04;;;;;;;6.20;5.37;;;;;;;20.07;81.29;100545.97;1661763;83;21477;-55
2023/08/11 01:31:12;;;;;;;7.50;5.15;;;;;;;20.06;81.35;100533.98;1683575;80;21453;-58
2023/08/11 01:34:17;;;;;;;8.10;5.62;;;;;;;20.04;81.38;100521.42;1674631;80;21275;-57
2023/08/11 01:37:23;;;;;;;8.43;5.20;;;;;;;20.02;81.43;100509.68;1687549;81;21972;-56
2023/08/11 01:40:29;;;;;;;7.20;5.15;;;;;;;19.99;81.52;100519.88;1677883;82;21336;-56
2023/08/11 01:46:04;;;;;;;6.53;4.92;;;;;;;19.97;81.71;100515.09;1683894;81;21391;-56
2023/08/11 01:54:08;;;;;;;5.70;4.08;;;;;;;19.92;81.81;100488.53;1667110;82;21245;-58
2023/08/11 01:59:45;;;;;;;6.47;4.42;;;;;;;19.87;81.97;100474.52;1689381;81;21419;-57
2023/08/11 02:05:20;;;;;;;8.50;4.85;;;;;;;19.85;82.07;100453.88;1687425;80;21790;-56
2023/08/11 02:13:24;;;;;;;7.53;4.72;;;;;;;19.83;82.45;100654.73;1679307;80;21432;-57
2023/08/11 02:18:59;;;;;;;10.60;5.12;;;;;;;19.91;82.71;100728.62;1694186;80;21974;-51
2023/08/11 02:24:36;;;;;;;6.97;3.92;;;;;;;19.88;82.83;100627.12;1674315;80;21265;-49
2023/08/11 02:27:42;;;;;;;5.08;2.92;;;;;;;19.84;82.95;100615.28;1688887;81;21234;-49
2023/08/11 02:35:45;;;;;;;5.08;2.90;;;;;;;19.64;83.39;100634.09;1692725;81;21415;-49
2023/08/11 02:41:21;;;;;;;5.75;3.25;;;;;;;19.62;83.71;100650.13;1689723;81;21241;-49
2023/08/11 02:46:57;;;;;;;6.78;2.70;;;;;;;19.66;83.78;100634.72;1683577;81;21318;-51
2023/08/11 02:52:32;;;;;;;4.83;2.67;;;;;;;19.58;83.60;100625.28;1688706;82;21368;-50
2023/08/11 02:58:08;;;;;;;3.60;2.72;;;;;;;19.53;83.76;100608.45;1689060;80;21442;-50
2023/08/11 03:03:44;;;;;;;5.87;3.72;;;;;;;19.48;83.80;100582.76;1646839;82;21815;-51
2023/08/11 03:09:18;;;;;;;4.28;3.02;;;;;;;19.45;83.96;100554.06;1669915;81;21837;-52
2023/08/11 03:14:53;;;;;;;6.22;3.33;;;;;;;19.44;84.05;100534.86;1689920;82;21355;-53
2023/08/11 03:18:00;;;;;;;4.35;3.05;;;;;;;19.44;84.05;100532.08;1668978;83;21833;-53
2023/08/11 03:23:36;;;;;;;4.00;3.12;;;;;;;19.45;84.21;100535.16;1659884;82;21342;-53
2023/08/11 03:31:43;;;;;;;4.90;3.15;;;;;;;19.49;84.42;100526.13;1683013;81;21296;-53
2023/08/11 03:37:20;;;;;;;4.28;3.30;;;;;;;19.54;84.58;100529.06;1688167;81;21415;-53
2023/08/11 03:42:55;;;;;;;4.78;3.77;;;;;;;19.62;84.55;100554.30;1665476;81;21292;-53
2023/08/11 03:48:32;;;;;;;7.40;3.75;;;;;;;19.72;84.52;100556.87;1673718;81;21301;-53
2023/08/11 03:54:09;;;;;;;4.53;3.50;;;;;;;19.73;84.35;100561.86;1672952;81;21243;-53
2023/08/11 04:02:14;;;;;;;5.37;3.80;;;;;;;19.80;84.63;100568.20;1688661;80;21893;-53
2023/08/11 04:07:48;;;;;;;5.08;4.53;;;;;;;19.85;84.68;100572.53;1684608;82;21467;-53
2023/08/11 04:13:25;;;;;;;5.33;4.60;;;;;;;19.93;84.77;100575.02;1671670;79;21239;-52
2023/08/11 04:19:01;;;;;;;5.87;4.80;;;;;;;20.02;84.80;100573.61;1688277;83;21404;-53
2023/08/11 04:24:37;;;;;;;5.65;5.03;;;;;;;20.08;84.82;100586.56;1684650;81;21917;-53
2023/08/11 04:30:12;;;;;;;6.08;5.25;;;;;;;20.16;84.93;100569.61;1668685;80;21835;-53
2023/08/11 04:35:48;;;;;;;6.72;5.30;;;;;;;20.24;84.97;100574.85;1681777;83;21456;-53
2023/08/11 04:41:23;;;;;;;8.70;5.83;;;;;;;20.28;84.80;100583.88;1688527;79;21299;-53
2023/08/11 04:46:59;;;;;;;9.75;5.60;;;;;;;20.32;84.87;100586.52;1688682;79;22143;-55
2023/08/11 04:52:35;;;;;;;6.42;5.28;;;;;;;20.34;84.83;100591.84;1687766;83;21267;-51
2023/08/11 05:00:43;;;;;;;5.75;4.75;;;;;;;20.28;84.86;100564.98;1690086;80;21415;-50
2023/08/11 05:08:48;;;;;;;7.75;4.83;;;;;;;20.30;84.96;100564.17;1695367;82;21309;-49
2023/08/11 05:14:23;;;;;;;7.87;4.85;;;;;;;20.32;85.03;100549.50;1703022;79;21277;-51
2023/08/11 05:17:29;;;;;;;6.72;4.85;;;;;;;20.36;85.12;100541.02;1705001;80;21331;-50
2023/08/11 05:23:06;;;;;;;7.58;4.50;;;;;;;20.42;85.06;100544.23;1710344;79;21263;-52
2023/08/11 05:28:42;;;;;;;6.55;5.10;;;;;;;20.42;85.06;100527.55;1667661;82;21242;-49
2023/08/11 05:34:17;;;;;;;8.20;4.90;;;;;;;20.55;85.33;100540.70;1693374;81;21308;-50
2023/08/11 05:39:54;;;;;;;9.40;5.95;;;;;;;20.77;85.50;100550.77;1689212;80;21974;-52
2023/08/11 05:48:00;;;;;;;7.70;5.45;;;;;;;21.01;85.32;100585.94;1704837;80;21225;-49
2023/08/11 05:53:35;;;;;;;6.85;5.72;;;;;;;21.02;85.09;100577.05;1702188;80;21235;-49
2023/08/11 05:59:10;;;;;;;7.35;5.37;;;;;;;21.02;85.12;100570.09;1673106;82;21332;-49
2023/08/11 06:04:45;;;;;;;6.92;5.60;;;;;;;21.09;85.21;100552.75;1689297;80;21240;-52
2023/08/11 06:07:51;;;;;;;6.12;5.03;;;;;;;21.12;85.19;100560.05;1675960;80;21288;-50
2023/08/11 06:15:57;;;;;;;8.05;5.80;;;;;;;21.11;84.82;100536.63;1699482;78;21240;-50
2023/08/11 06:19:05;;;;;;;7.17;5.70;;;;;;;21.12;84.85;100532.20;1639201;82;21328;-50
2023/08/11 06:24:41;;;;;;;7.97;6.67;;;;;;;21.27;85.17;100527.02;1692590;81;21245;-51
2023/08/11 06:30:19;;;;;;;8.23;6.72;;;;;;;21.52;85.31;100537.91;1699976;80;21279;-50
2023/08/11 06:33:38;;;;;;;12.10;7.53;;;;;;;21.62;85.28;100539.55;1680830;79;21259;-50
2023/08/11 06:36:50;;;;;;;13.00;10.88;;;;;;;21.69;85.26;100527.17;1690794;79;21215;-51
2023/08/11 06:40:03;;;;;;;9.95;8.43;;;;;;;21.77;85.22;100533.80;1670738;79;21373;-50
2023/08/11 06:48:07;;;;;;;12.88;10.63;;;;;;;21.87;84.85;100554.94;1693653;79;21275;-51
2023/08/11 06:51:13;;;;;;;8.50;6.97;;;;;;;21.89;84.78;100553.30;1669872;79;21239;-52
2023/08/11 06:56:48;;;;;;;7.25;6.12;;;;;;;21.91;84.83;100551.12;1702479;78;21273;-52
2023/08/11 07:02:25;;;;;;;10.15;7.58;;;;;;;21.94;84.94;100548.69;1707469;79;21313;-52
2023/08/11 07:05:39;;;;;;;13.30;6.60;;;;;;;21.96;84.93;100552.63;1656990;78;21225;-50
2023/08/11 07:08:55;;;;;;;9.33;6.03;;;;;;;21.98;84.92;100528.97;1701563;79;21632;-49
2023/08/11 07:14:43;;;;;;;10.23;6.50;;;;;;;22.24;85.22;100540.11;1696836;80;21323;-49
2023/08/11 07:17:49;;;;;;;7.65;6.22;;;;;;;22.40;85.36;100541.26;1700462;78;21313;-51
2023/08/11 07:20:59;;;;;;;24.57;15.65;;;;;;;22.58;85.34;100530.77;1689432;78;21491;-53
2023/08/11 07:24:14;;;;;;;9.73;7.30;;;;;;;22.76;85.13;100528.30;1680146;78;21519;-50
2023/08/11 07:27:00;;;;;;;9.70;6.53;;;;;;;22.98;85.27;100525.92;1694570;80;21293;-50
2023/08/11 07:29:30;;;;;;;8.03;6.30;;;;;;;23.17;85.19;100520.92;1699518;80;22230;-52
2023/08/11 07:32:41;;;;;;;7.60;5.55;;;;;;;23.35;85.12;100519.30;1699853;79;21260;-53
2023/08/11 07:35:10;;;;;;;8.95;6.58;;;;;;;23.51;84.90;100515.09;1656486;82;21228;-49
2023/08/11 07:43:15;;;;;;;7.53;5.72;;;;;;;23.93;84.54;100518.75;1690771;80;21236;-51
2023/08/11 07:48:51;;;;;;;6.58;5.60;;;;;;;24.09;83.87;100512.25;1709368;79;21260;-53
2023/08/11 07:54:26;;;;;;;8.33;5.62;;;;;;;24.31;83.95;100520.94;1709271;79;21693;-55
2023/08/11 08:00:02;;;;;;;7.05;5.65;;;;;;;24.45;83.64;100511.02;1702584;80;21227;-55
2023/08/11 08:05:37;;;;;;;8.03;5.78;;;;;;;24.55;83.50;100526.53;1680860;80;21232;-56
2023/08/11 08:11:13;;;;;;;8.15;5.30;;;;;;;24.82;83.61;100545.61;1660361;82;22166;-56
2023/08/11 08:19:20;;;;;;;7.70;5.20;;;;;;;25.21;83.06;100535.59;1709029;80;21244;-54
2023/08/11 08:22:28;;;;;;;7.28;5.08;;;;;;;25.28;83.04;100527.78;1699583;81;21341;-57
2023/08/11 08:25:35;;;;;;;8.83;5.22;;;;;;;25.36;82.92;100528.73;1699025;80;21287;-54
2023/08/11 08:31:10;;;;;;;8.65;5.42;;;;;;;25.37;82.33;100512.22;1706891;80;21291;-54
2023/08/11 08:36:48;;;;;;;8.83;5.10;;;;;;;25.40;82.21;100497.11;1703098;79;22013;-57
2023/08/11 08:42:23;;;;;;;9.48;5.87;;;;;;;25.32;81.76;100490.57;1624790;82;21255;-54
2023/08/11 08:47:58;;;;;;;7.12;5.47;;;;;;;25.43;81.96;100501.32;1699760;80;21292;-55
2023/08/11 08:51:03;;;;;;;6.53;5.05;;;;;;;25.45;81.81;100494.89;1702809;81;21254;-54
2023/08/11 08:56:42;;;;;;;6.92;5.92;;;;;;;25.51;81.87;100474.17;1680671;81;21250;-56
2023/08/11 09:02:15;;;;;;;7.08;5.30;;;;;;;25.62;81.76;100475.92;1696300;80;21725;-52
2023/08/11 09:10:18;;;;;;;9.28;6.15;;;;;;;25.82;81.65;100474.61;1708658;79;21790;-54
2023/08/11 09:13:25;;;;;;;10.70;6.12;;;;;;;25.84;81.39;100486.41;1709365;79;21296;-52
2023/08/11 09:19:01;;;;;;;5.45;4.35;;;;;;;26.04;81.32;100487.38;1711848;79;22092;-51
2023/08/11 09:22:07;;;;;;;7.00;4.60;;;;;;;26.06;80.97;100487.11;1713010;78;21297;-52
2023/08/11 09:25:12;;;;;;;7.72;4.62;;;;;;;26.06;80.83;100486.55;1706141;79;21232;-51
2023/08/11 09:30:48;;;;;;;5.83;4.85;;;;;;;26.25;80.85;100502.34;1703624;80;21244;-53
2023/08/11 09:36:23;;;;;;;8.25;5.40;;;;;;;26.27;80.43;100523.97;1690121;80;21223;-56
2023/08/11 09:42:00;;;;;;;8.13;5.00;;;;;;;26.18;80.05;100522.23;1683801;81;21560;-56
2023/08/11 09:47:37;;;;;;;9.85;4.92;;;;;;;26.14;80.11;100507.08;1738965;78;21360;-55
2023/08/11 09:53:12;;;;;;;7.00;4.95;;;;;;;26.24;79.95;100499.25;1698372;80;21282;-56
2023/08/11 09:58:47;;;;;;;8.08;4.60;;;;;;;26.27;79.73;100498.12;1693327;79;21754;-55
2023/08/11 10:01:54;;;;;;;5.80;4.60;;;;;;;26.32;79.67;100505.74;1697302;80;21242;-53
2023/08/11 10:07:29;;;;;;;6.42;4.03;;;;;;;26.34;79.33;100505.73;1694090;80;21266;-53
2023/08/11 10:13:15;;;;;;;6.65;4.30;;;;;;;26.21;78.87;100496.42;1705046;78;21251;-52
2023/08/11 10:16:22;;;;;;;6.97;4.92;;;;;;;26.07;78.73;100480.36;1691333;82;21774;-56
2023/08/11 10:19:30;;;;;;;6.03;4.60;;;;;;;25.91;78.71;100476.63;1698533;80;21239;-54
2023/08/11 10:22:37;;;;;;;9.85;5.15;;;;;;;25.78;78.65;100460.86;1686552;78;21793;-55
2023/08/11 10:28:13;;;;;;;6.53;4.87;;;;;;;25.51;78.68;100444.73;1693531;79;21264;-54
2023/08/11 10:31:20;;;;;;;11.00;5.30;;;;;;;25.37;78.53;100442.13;1695505;81;21271;-54
2023/08/11 10:34:28;;;;;;;6.75;5.20;;;;;;;25.14;78.50;100435.48;1700515;81;21787;-53
2023/08/11 10:40:14;;;;;;;6.53;5.58;;;;;;;24.91;78.87;100451.56;1718453;79;21515;-53
2023/08/11 10:43:24;;;;;;;8.28;5.12;;;;;;;24.86;78.98;100449.30;1712599;79;21371;-54
2023/08/11 10:49:22;;;;;;;6.37;5.12;;;;;;;24.72;79.11;100448.88;1705081;80;21914;-53
2023/08/11 10:55:00;;;;;;;8.00;5.17;;;;;;;24.49;79.00;100450.61;1648157;83;21611;-54
2023/08/11 10:58:21;;;;;;;9.83;6.33;;;;;;;24.42;79.07;100449.97;1659290;82;21254;-55
2023/08/11 11:01:27;;;;;;;7.70;5.55;;;;;;;24.31;79.14;100456.56;1648312;79;21293;-54
2023/08/11 11:04:36;;;;;;;9.20;6.20;;;;;;;24.15;79.12;100460.30;1693049;81;21245;-52
2023/08/11 11:07:42;;;;;;;7.78;6.00;;;;;;;23.97;79.17;100455.61;1693109;80;21319;-52
2023/08/11 11:13:04;;;;;;;9.15;6.60;;;;;;;23.56;79.60;100451.43;1706235;80;21219;-51
2023/08/11 11:16:11;;;;;;;9.70;7.65;;;;;;;23.48;79.79;100443.49;1673119;83;21260;-52
2023/08/11 11:21:47;;;;;;;10.78;6.83;;;;;;;23.22;79.87;100430.22;1662052;82;21927;-53
2023/08/11 11:27:23;;;;;;;11.25;7.00;;;;;;;23.01;80.06;100431.86;1701734;80;21315;-54
2023/08/11 11:30:29;;;;;;;12.78;8.25;;;;;;;22.92;80.13;100420.83;1671233;83;21219;-53
2023/08/11 11:36:04;;;;;;;10.00;8.25;;;;;;;22.76;80.49;100457.97;1692855;79;22048;-53
2023/08/11 11:41:40;;;;;;;11.40;8.90;;;;;;;22.72;80.82;100462.92;1673685;81;21255;-51
2023/08/11 11:47:18;;;;;;;14.75;10.55;;;;;;;22.68;80.99;100482.66;1684686;79;21299;-52
2023/08/11 11:52:55;;;;;;;11.60;10.32;;;;;;;22.69;81.16;100474.03;1675127;81;21241;-51
2023/08/11 11:58:48;;;;;;;9.95;7.50;;;;;;;22.65;81.23;100480.38;1717688;80;21888;-49
2023/08/11 12:01:56;;;;;;;7.90;5.03;;;;;;;22.61;81.26;100493.16;1635454;82;21242;-49
2023/08/11 12:05:03;;;;;;;8.65;3.70;;;;;;;22.37;80.77;100511.07;1685722;79;21452;-49
2023/08/11 12:08:27;;;;;;;4.83;2.30;;;;;;;21.76;80.48;100523.75;1684789;80;21246;-53
2023/08/11 12:11:34;;;;;;;9.83;3.17;;;;;;;20.95;80.16;100556.81;1712030;79;21450;-51
2023/08/11 12:14:42;;;;;;;7.90;3.20;;;;;;;20.31;80.70;100548.64;1687482;80;21528;-53
2023/08/11 12:20:17;;;;;;;3.80;2.55;;;;;;;19.85;81.20;100569.76;1704500;79;21187;-54
2023/08/11 12:23:22;;;;;;;7.40;3.08;;;;;;;19.73;81.48;100551.61;1703867;80;21740;-55
2023/08/11 12:28:56;;;;;;;5.95;2.33;;;;;;;19.58;81.67;100548.38;1679016;80;21400;-55
2023/08/11 12:32:02;;;;;;;8.38;2.60;;;;;;;19.42;81.41;100553.66;1691886;78;21270;-55
2023/08/11 12:37:37;;;;;;;5.65;2.80;;;;;;;18.97;81.77;100535.80;1694400;78;21212;-56
2023/08/11 12:43:13;;;;;;;11.08;3.47;;;;;;;18.92;82.34;100516.20;1682365;81;21244;-54
2023/08/11 12:48:49;;;;;;;3.70;2.50;;;;;;;19.12;82.88;100542.39;1664503;80;22312;-55
2023/08/11 12:51:54;;;;;;;4.60;2.47;;;;;;;19.17;83.00;100551.72;1673927;80;21291;-55
2023/08/11 12:57:30;;;;;;;3.92;2.10;;;;;;;19.37;83.31;100547.94;1679359;81;21255;-55
2023/08/11 13:03:05;;;;;;;6.62;2.17;;;;;;;19.33;83.05;100566.98;1699290;78;21551;-56
2023/08/11 13:08:42;;;;;;;4.92;2.92;;;;;;;19.24;82.98;100562.77;1707006;79;21775;-53
2023/08/11 13:14:18;;;;;;;7.67;3.92;;;;;;;19.18;83.26;100556.22;1712773;79;21243;-53
2023/08/11 13:19:54;;;;;;;8.93;4.40;;;;;;;19.26;83.72;100565.64;1699076;80;21239;-54
2023/08/11 13:25:29;;;;;;;7.97;6.30;;;;;;;19.43;84.05;100566.45;1705562;79;21610;-53
2023/08/11 13:31:05;;;;;;;6.30;4.45;;;;;;;19.56;84.32;100556.61;1705728;80;21235;-52
2023/08/11 13:34:11;;;;;;;7.95;3.52;;;;;;;19.61;84.29;100549.83;1701535;78;21745;-53
2023/08/11 13:39:46;;;;;;;3.83;2.37;;;;;;;19.52;84.29;100557.60;1706227;80;21286;-52
2023/08/11 13:42:51;;;;;;;2.50;1.90;;;;;;;19.51;84.32;100552.28;1700450;79;21386;-52
2023/08/11 13:50:56;;;;;;;5.72;2.42;;;;;;;19.44;84.38;100532.08;1702801;81;21796;-52
2023/08/11 13:54:03;;;;;;;11.18;3.00;;;;;;;19.38;84.36;100517.17;1702894;77;21867;-53
2023/08/11 13:57:09;;;;;;;5.87;2.72;;;;;;;19.36;84.55;100524.87;1700882;78;21288;-53
2023/08/11 14:02:44;;;;;;;4.40;2.30;;;;;;;19.42;84.88;100524.51;1709834;81;21401;-52
2023/08/11 14:08:21;;;;;;;5.10;2.83;;;;;;;19.55;85.12;100522.42;1686290;81;21743;-51
2023/08/11 14:13:57;;;;;;;3.95;2.92;;;;;;;19.69;85.30;100506.47;1708270;79;21254;-51
2023/08/11 14:19:32;;;;;;;5.28;3.08;;;;;;;19.76;85.31;100471.97;1703490;80;21767;-52
2023/08/11 14:25:08;;;;;;;6.30;2.62;;;;;;;19.75;85.11;100457.78;1676026;82;21209;-51
2023/08/11 14:30:45;;;;;;;7.70;3.10;;;;;;;19.63;85.09;100467.95;1724349;80;21285;-50
2023/08/11 14:36:20;;;;;;;6.62;3.27;;;;;;;19.64;85.46;100474.37;1737990;79;21264;-51
2023/08/11 14:41:57;;;;;;;4.58;3.22;;;;;;;19.64;85.57;100485.48;1652319;82;21599;-51
2023/08/11 14:47:45;;;;;;;4.83;3.60;;;;;;;19.70;85.84;100487.32;1701701;80;21235;-51
2023/08/11 14:50:51;;;;;;;4.40;3.37;;;;;;;19.69;85.86;100484.25;1711232;79;21414;-50
2023/08/11 14:53:57;;;;;;;6.25;3.30;;;;;;;19.67;85.96;100482.23;1702607;80;21957;-49
2023/08/11 14:59:36;;;;;;;7.15;3.10;;;;;;;19.60;86.06;100465.64;1718006;80;21378;-49
2023/08/11 15:02:45;;;;;;;3.20;2.57;;;;;;;19.56;86.04;100463.57;1718207;81;21437;-51
2023/08/11 15:08:20;;;;;;;3.55;2.27;;;;;;;19.43;86.00;100458.17;1714410;81;21436;-52
2023/08/11 15:13:57;;;;;;;3.45;2.22;;;;;;;19.39;86.05;100456.95;1718284;80;21429;-51
2023/08/11 15:17:04;;;;;;;3.08;2.55;;;;;;;19.37;86.12;100454.41;1717313;79;21229;-51
2023/08/11 15:25:11;;;;;;;4.80;2.72;;;;;;;19.37;86.14;100446.08;1708746;80;22149;-49
2023/08/11 15:28:17;;;;;;;4.53;2.80;;;;;;;19.34;86.11;100440.42;1717991;79;21412;-49
2023/08/11 15:33:53;;;;;;;4.97;2.77;;;;;;;19.29;86.12;100439.44;1716478;81;21219;-53
2023/08/11 15:39:30;;;;;;;4.28;3.05;;;;;;;19.29;86.25;100450.54;1693166;79;21887;-50
2023/08/11 15:45:05;;;;;;;4.50;2.72;;;;;;;19.31;86.43;100456.16;1666428;82;21245;-51
2023/08/11 15:50:41;;;;;;;5.08;3.17;;;;;;;19.34;86.53;100440.98;1678774;83;21328;-49
2023/08/11 15:56:17;;;;;;;5.42;3.20;;;;;;;19.38;86.63;100440.81;1719856;79;21235;-49
2023/08/11 16:01:54;;;;;;;5.55;3.08;;;;;;;19.42;86.69;100430.11;1713899;80;21382;-50
2023/08/11 16:10:00;;;;;;;5.58;3.47;;;;;;;19.44;86.81;100426.56;1719188;80;21964;-50
2023/08/11 16:13:06;;;;;;;3.90;3.35;;;;;;;19.45;86.90;100421.30;1714660;79;21762;-49
2023/08/11 16:18:41;;;;;;;5.42;3.60;;;;;;;19.51;87.11;100430.09;1710002;80;21352;-50
2023/08/11 16:26:47;;;;;;;6.65;4.25;;;;;;;19.55;87.25;100423.00;1721595;79;21864;-51
2023/08/11 16:32:21;;;;;;;7.20;4.35;;;;;;;19.59;87.45;100433.94;1724073;80;21402;-52
2023/08/11 16:37:57;;;;;;;6.37;4.35;;;;;;;19.66;87.64;100436.97;1713903;80;21339;-52
2023/08/11 16:41:03;;;;;;;9.05;5.12;;;;;;;19.68;87.65;100436.73;1717892;79;21391;-49
2023/08/11 16:49:08;;;;;;;9.65;5.22;;;;;;;19.72;87.80;100443.50;1720905;80;21248;-50
2023/08/11 16:52:16;;;;;;;6.65;5.53;;;;;;;19.72;87.87;100439.33;1718519;80;21375;-51
2023/08/11 16:55:24;;;;;;;14.85;9.58;;;;;;;19.75;88.01;100447.20;1660335;80;21974;-51
2023/08/11 16:58:15;;;;;;;8.28;5.53;;;;;;;19.78;88.08;100446.73;1690212;78;21397;-50
2023/08/11 17:01:20;;;;;;;8.70;5.00;;;;;;;19.79;88.11;100447.88;1713029;79;21362;-48
2023/08/11 17:06:57;;;;;;;9.40;5.90;;;;;;;19.82;88.33;100443.80;1687402;81;21244;-50
2023/08/11 17:12:33;;;;;;;7.92;5.72;;;;;;;19.85;88.48;100450.28;1657794;82;21390;-50
2023/08/11 17:18:07;;;;;;;7.33;6.08;;;;;;;19.86;88.56;100454.73;1721504;80;21383;-50
2023/08/11 17:21:14;;;;;;;6.72;5.60;;;;;;;19.85;88.61;100444.16;1711505;80;21231;-49
2023/08/11 17:29:20;;;;;;;8.18;5.90;;;;;;;19.82;88.60;100444.63;1714568;80;21961;-50
2023/08/11 17:34:54;;;;;;;7.62;5.55;;;;;;;19.78;88.62;100439.25;1718971;80;21227;-48
2023/08/11 17:40:31;;;;;;;7.50;5.83;;;;;;;19.76;88.67;100434.98;1700903;80;21394;-49
2023/08/11 17:46:07;;;;;;;7.75;6.08;;;;;;;19.75;88.78;100437.47;1721780;80;21235;-49
2023/08/11 17:49:12;;;;;;;10.38;6.85;;;;;;;19.74;88.86;100433.84;1718813;79;21397;-49
2023/08/11 17:52:10;;;;;;;9.13;6.42;;;;;;;19.76;88.97;100434.98;1719048;79;21374;-51
2023/08/11 17:57:47;;;;;;;10.28;8.30;;;;;;;19.77;89.14;100435.31;1665368;81;21386;-49
2023/08/11 18:03:23;;;;;;;8.85;6.75;;;;;;;19.75;89.21;100430.53;1711697;80;21244;-49
2023/08/11 18:08:58;;;;;;;11.88;7.50;;;;;;;19.76;89.29;100430.82;1717098;79;21374;-49
2023/08/11 18:14:43;;;;;;;9.48;7.08;;;;;;;19.74;89.29;100421.90;1713855;80;21243;-50
2023/08/11 18:17:46;;;;;;;9.23;7.00;;;;;;;19.72;89.28;100419.89;1713255;79;21243;-50
2023/08/11 18:23:05;;;;;;;8.65;7.33;;;;;;;19.68;89.43;100412.55;1716474;79;21533;-50
2023/08/11 18:26:12;;;;;;;10.50;7.25;;;;;;;19.68;89.50;100411.17;1714805;79;22004;-51
2023/08/11 18:29:19;;;;;;;12.65;7.20;;;;;;;19.69;89.63;100410.11;1723638;80;21660;-50
2023/08/11 18:34:55;;;;;;;11.35;9.50;;;;;;;19.75;89.91;100413.86;1728798;79;21899;-50
2023/08/11 18:38:02;;;;;;;8.38;7.30;;;;;;;19.76;89.96;100408.06;1735484;78;21208;-50
2023/08/11 18:43:37;;;;;;;11.22;7.30;;;;;;;19.80;90.04;100425.98;1725812;80;21366;-49
2023/08/11 18:49:13;;;;;;;8.10;6.30;;;;;;;19.83;90.07;100426.04;1740200;82;22237;-49
2023/08/11 18:54:49;;;;;;;7.10;5.97;;;;;;;19.84;90.10;100422.17;1690411;81;21886;-50
2023/08/11 18:57:56;;;;;;;7.15;5.58;;;;;;;19.83;90.14;100421.88;1725054;80;21227;-51
2023/08/11 19:03:30;;;;;;;7.25;6.33;;;;;;;19.83;90.25;100427.42;1675858;81;21378;-50
2023/08/11 19:06:40;;;;;;;8.05;6.30;;;;;;;19.82;90.27;100422.97;1682417;81;21771;-50
2023/08/11 19:14:44;;;;;;;7.97;6.10;;;;;;;19.79;90.33;100408.16;1680950;82;21244;-51
2023/08/11 19:20:20;;;;;;;7.47;5.97;;;;;;;19.75;90.29;100393.02;1722062;79;21310;-52
2023/08/11 19:25:55;;;;;;;9.90;5.90;;;;;;;19.69;90.27;100388.41;1719959;79;21411;-50
2023/08/11 19:31:35;;;;;;;8.13;6.05;;;;;;;19.66;90.36;100381.95;1716975;79;21222;-51
2023/08/11 19:37:11;;;;;;;6.67;5.47;;;;;;;19.61;90.41;100372.07;1719865;80;21339;-52
2023/08/11 19:42:46;;;;;;;7.55;6.00;;;;;;;19.59;90.51;100375.61;1723841;80;21362;-51
2023/08/11 19:48:23;;;;;;;7.92;6.00;;;;;;;19.58;90.60;100380.88;1733463;80;21241;-50
2023/08/11 19:56:31;;;;;;;7.35;5.87;;;;;;;19.55;90.63;100371.06;1689791;81;21385;-50
2023/08/11 20:02:06;;;;;;;7.08;5.75;;;;;;;19.57;90.74;100385.58;1720929;80;21394;-50
2023/08/11 20:07:42;;;;;;;6.35;5.37;;;;;;;19.56;90.81;100367.76;1683555;80;21228;-50
2023/08/11 20:13:17;;;;;;;8.03;5.37;;;;;;;19.58;90.87;100378.09;1672124;82;21225;-50
2023/08/11 20:18:53;;;;;;;7.15;5.08;;;;;;;19.60;90.93;100369.00;1675209;81;21340;-51
2023/08/11 20:24:29;;;;;;;7.85;5.83;;;;;;;19.59;91.06;100365.89;1675272;81;21251;-51
2023/08/11 20:30:03;;;;;;;8.10;5.53;;;;;;;19.64;91.25;100375.23;1680397;80;21251;-51
2023/08/11 20:35:39;;;;;;;9.63;6.12;;;;;;;19.64;91.25;100378.02;1668008;81;21416;-51
2023/08/11 20:41:15;;;;;;;8.30;5.62;;;;;;;19.65;91.34;100373.28;1676892;81;21232;-51
2023/08/11 20:46:52;;;;;;;8.00;6.20;;;;;;;19.67;91.38;100362.80;1717451;80;21660;-51
2023/08/11 20:52:29;;;;;;;7.15;6.12;;;;;;;19.71;91.50;100361.26;1670417;81;21236;-52
2023/08/11 20:55:33;;;;;;;7.67;6.72;;;;;;;19.72;91.52;100357.39;1717525;79;21280;-51
2023/08/11 21:01:09;;;;;;;10.18;7.40;;;;;;;19.75;91.67;100342.48;1715843;80;21270;-52
2023/08/11 21:06:44;;;;;;;12.95;8.00;;;;;;;19.78;91.81;100346.71;1721418;81;21349;-52
2023/08/11 21:12:20;;;;;;;8.95;7.72;;;;;;;19.80;91.90;100342.63;1717121;80;21394;-53
2023/08/11 21:17:56;;;;;;;9.63;8.30;;;;;;;19.82;91.94;100335.45;1718887;78;21797;-53
2023/08/11 21:23:30;;;;;;;12.60;8.83;;;;;;;19.82;91.91;100336.84;1714284;80;21445;-51
2023/08/11 21:29:06;;;;;;;10.35;8.48;;;;;;;19.80;91.92;100337.08;1677655;80;21995;-51
2023/08/11 21:32:13;;;;;;;9.40;8.48;;;;;;;19.81;91.96;100335.13;1709079;81;21240;-51
2023/08/11 21:37:59;;;;;;;13.00;9.98;;;;;;;19.82;92.04;100338.23;1690948;79;21367;-52
2023/08/11 21:41:06;;;;;;;12.47;9.65;;;;;;;19.81;92.09;100332.34;1714106;80;21460;-52
2023/08/11 21:44:15;;;;;;;10.60;9.53;;;;;;;19.82;92.16;100339.61;1722198;79;21386;-51
2023/08/11 21:47:20;;;;;;;14.13;10.70;;;;;;;19.82;92.12;100334.06;1703597;78;21406;-51
2023/08/11 21:50:27;;;;;;;18.10;12.20;;;;;;;19.82;92.15;100339.05;1690975;80;21254;-51
2023/08/11 21:56:01;;;;;;;17.42;12.25;;;;;;;19.84;92.34;100340.20;1678144;80;21975;-51
2023/08/11 22:01:37;;;;;;;13.83;11.83;;;;;;;19.86;92.49;100339.44;1721848;80;21227;-51
2023/08/11 22:07:13;;;;;;;14.43;12.53;;;;;;;19.84;92.56;100330.48;1714547;80;21362;-51
2023/08/11 22:12:51;;;;;;;14.30;12.50;;;;;;;19.85;92.62;100332.19;1710705;80;21357;-51
2023/08/11 22:18:27;;;;;;;14.98;12.40;;;;;;;19.86;92.61;100333.88;1721978;81;21372;-51
2023/08/11 22:24:01;;;;;;;13.98;12.37;;;;;;;19.85;92.57;100333.58;1732590;80;21224;-51
2023/08/11 22:29:37;;;;;;;15.48;13.60;;;;;;;19.83;92.45;100330.19;1714330;80;21268;-50
2023/08/11 22:35:12;;;;;;;17.37;13.32;;;;;;;19.81;92.51;100317.06;1713757;79;21958;-50
2023/08/11 22:43:17;;;;;;;15.00;13.43;;;;;;;19.74;92.46;100305.23;1703173;79;21239;-49
2023/08/11 22:48:52;;;;;;;17.50;13.10;;;;;;;19.64;92.44;100292.44;1707863;79;21366;-50
2023/08/11 22:54:27;;;;;;;14.45;11.80;;;;;;;19.57;92.52;100280.04;1705665;80;21445;-50
2023/08/11 23:00:06;;;;;;;12.55;11.25;;;;;;;19.53;92.65;100273.28;1701015;81;21271;-50
2023/08/11 23:03:03;;;;;;;11.18;9.93;;;;;;;19.52;92.66;100276.30;1709333;79;21264;-48
2023/08/11 23:08:37;;;;;;;10.08;8.65;;;;;;;19.44;92.73;100257.19;1709178;80;21273;-49
2023/08/11 23:11:42;;;;;;;9.88;8.25;;;;;;;19.42;92.82;100259.34;1703363;80;21989;-50
2023/08/11 23:17:16;;;;;;;7.90;7.10;;;;;;;19.36;92.91;100259.73;1684514;80;21223;-49